Macks Creek, Missouri
Current Conditions -  °F | °C
As of 6:15 AM on Saturday 20 Dec 2014 (Local Time) from KH21 Reporting Station
Overcast Overcast  
Wind Chill: 36°   Ceiling: 1500
Heat Index: 36°   Visibility: 7mi
Dew Point: 36°   Wind: 3mph
Humidity: 100%   Direction: 150°SSE
Pressure: 30.22"   Gusts: NA
Location:  37.97°N, 92.97°W
Report Text: KH21 201215Z AUTO 15003KT 7SM SCT008 OVC015 02/02 A3022 RMK AO2
Loading
Personal Weather Stations






























Interactive Weather Map New forecast layout! Learn more

10-Day Weather Forecast

Advertisements
Track Severe Weather on mobile